• Join FlightAware (Why Join?)
  • Login
  • US Flag 
03:26AM EST


 

Airport Tracker/Info


-or-


 

Live Flight TrackerFlight Track Log ✈ EJA641 ✈ 22-Apr-2013 ✈ KBOS - KHPN

Flight Track Log - Related Links

Times and Time Zones

All times are in EDT time to prevent confusion due to time zone crossing. See the EJA641 flight status page for this flight to view local times or setup timezone preferences in your user account.

Time Position Orientation Groundspeed Altitude Reporting Facility
EDT Latitude Longitude Course Direction KTS MPH feet Rate Location/Type
07:54PM 42.3667 -70.9833 80° East 113 130 1,600  Level KA90
07:57PM 42.3906 -70.7928 80° East 247 284 9,500 2,940 Climbing Boston Center
07:58PM 42.3583 -70.7289 124° Southeast 234 269 11,900 3,180 Climbing Boston Center
07:59PM 42.2883 -70.7928 214° Southwest 157 181 15,900 2,040 Climbing Boston Center
08:00PM 42.2653 -70.9336 258° West 222 255 16,000  Climbing Boston Center
08:01PM 42.2461 -71.0631 259° West 317 365 16,000  Level Boston Center
08:02PM 42.2269 -71.1953 259° West 350 403 16,000  Level Boston Center
08:03PM 42.2053 -71.3217 257° West 358 412 16,000  Level Boston Center
08:04PM 42.1878 -71.4511 260° West 353 406 16,000  Level Boston Center
08:05PM 42.1678 -71.5803 258° West 353 406 16,000  Level Boston Center
08:06PM 42.1500 -71.7064 259° West 353 406 16,000  Level Boston Center
08:07PM 42.1258 -71.8356 256° West 353 406 16,000 -60 Level Boston Center
08:08PM 42.0992 -71.9533 253° West 364 419 15,900 -60 Descending Boston Center
08:09PM 42.0686 -72.0933 254° West 356 410 15,900  Level Boston Center
08:10PM 42.0439 -72.2081 254° West 356 410 15,900  Level Boston Center
08:11PM 42.0169 -72.3422 255° West 356 410 15,900  Level Boston Center
08:12PM 41.9897 -72.4597 253° West 362 417 15,900  Level Boston Center
08:13PM 41.9606 -72.5964 254° West 356 410 16,000  Climbing Boston Center
08:14PM 41.9292 -72.7219 251° West 356 410 16,000  Level Boston Center
08:15PM 41.8808 -72.8389 241° Southwest 361 415 16,000 -840 Level Boston Center
08:16PM 41.8325 -72.9528 240° Southwest 361 415 14,400 -1,860 Descending Boston Center
08:17PM 41.7858 -73.0636 241° Southwest 347 399 12,300 -1,200 Descending Boston Center
08:18PM 41.7394 -73.1744 241° Southwest 347 399 12,100 -120 Descending Boston Center
08:19PM 41.6928 -73.2825 240° Southwest 347 399 12,100 -600 Level Boston Center
08:21PM 41.6000 -73.5000 240° Southwest 287 330 10,200 -960 Descending New York TRACON
08:22PM 41.5667 -73.5833 242° Southwest 276 318 9,300 -960 Descending New York TRACON
08:23PM 41.5333 -73.6667 242° Southwest 273 314 8,400 -960 Descending New York TRACON
08:24PM 41.4833 -73.7500 231° Southwest 270 311 7,400 -960 Descending New York TRACON
08:25PM 41.4500 -73.8500 246° West 273 314 6,500 -900 Descending New York TRACON
08:26PM 41.3833 -73.8667 191° South 246 283 5,600 -960 Descending New York TRACON
08:27PM 41.3333 -73.8667 180° South 197 227 4,600 -1,020 Descending New York TRACON
08:28PM 41.2833 -73.8667 180° South 167 192 3,600 -840 Descending New York TRACON
08:29PM 41.2500 -73.8500 159° South 144 166 3,100 -300 Descending New York TRACON
08:30PM 41.2167 -73.8167 143° Southeast 143 165 3,100 -120 Level New York TRACON
08:31PM 41.1833 -73.8000 159° South 146 168 2,900 -300 Descending New York TRACON
08:32PM 41.1500 -73.7667 143° Southeast 130 150 2,600 -660 Descending New York TRACON
08:33PM 41.1167 -73.7500 159° South 110 127 1,600 -780 Descending New York TRACON
08:34PM 41.1000 -73.7333 143° Southeast 112 129 1,000 -600 Descending New York TRACON
08:36PM 41.0667 -73.7000 147° Southeast  Level FlightAware Approximate
08:43PM 41.0669 -73.7076 147° Southeast  Level Estimated